Atyray, Kazakhstan

8:53 AM +05 on July 28, 2016 (GMT +0500)
Atyrau | | Change Station

Elev -72 ft 47.12 °N, 51.83 °E | Updated 23 minutes ago

Smoke
Smoke
66 °F
Feels Like 66 °F
N
7
Wind Variable Wind from North

Today
High -- | Low -- °F
--% Chance of Precip.
Yesterday
High -- | Low -- °F
Precip. -- in
Pressure 29.92 in
Visibility 3.1 miles
Clouds Scattered Clouds 13000 ft
Dew Point 52 °F
Humidity 60%
Rainfall 0.00 in
Snow Depth Not available.
6:06 AM 9:10 PM
Last Quarter, 36% visible
METAR UATG 280330Z 01003MPS 5000 FU SCT130 19/11 Q1013 R32/CLRD70 NOSIG RMK QFE762/1016
Pressure 29.92 in
Visibility 3.1 miles
Clouds Scattered Clouds 13000 ft
Dew Point 52 °F
Humidity 60%
Rainfall 0.00 in
Snow Depth Not available.
6:06 AM 9:10 PM
Last Quarter, 36% visible
METAR UATG 280330Z 01003MPS 5000 FU SCT130 19/11 Q1013 R32/CLRD70 NOSIG RMK QFE762/1016

10-Day Weather Forecast

×

Almanac

Astronomy

Jul. 28, 2016 Rise Set
Actual Time
Civil Twilight
Nautical Twilight
Astronomical Twilight
Moon
Length of Visible Light
Length of Day
Tomorrow will be .
, % of the Moon is Illuminated

Today's Extremes

Country Highs Country Lows

Community

WunderPhotos

Upload Photos

1,928,037 photos uploaded!

WunderBlog® & News

Nearby

Air Quality

  Air Quality AQ Index Pollutant
Not available.

Snow Depth

Station Depth Elevation

Earthquake Activity

City Distance Mag. Time & Date
Minimum magnitude displayed is 2.5.

Coastal Water Temperatures

Place Temperature

Stations

Nearby Weather Stations

Station Location Temp. Windchill Dew Point Humidity Wind Precip. Elev Updated Type